Main page
METAR-TAF:

METAR-TAF

Airports :

Léopold Sédar Senghor International Airport

Dakar, Senegal

latitude: 14-44N, longitude: 017-30W, elevation: 27 m

Current weather observation

The report was made 48 minutes ago, at 01:00 UTC
Wind 4 kt from the North
Temperature 22°C
Humidity 88%
Pressure 1013 hPa
Visibility: 8000 m

METAR: GOOY 220100Z 36004KT 8000 NSC 22/20 Q1013

Time: 01:48 (01:48 UTC)

Forecast

The report was made 2 hours and 20 minutes ago, at 23:28 UTC
Forecast valid from 22 at 00 UTC to 23 at 06 UTC
Wind 6 kt from the North
Visibility: 8000 m

TAF: GOOY 212328Z 2200/2306 36006KT 8000 NSC

Weather observations and forecasts of more than 4000 airports (METAR and TAF reports).

The available stations are represented by yellow and red dots on the map.

Hover mouse over dot to see the name of the station.

Then click to see weather observations and forecasts.

To change the map : click on the green buttons with a black cross to zoom in, on the green button with a dash to zoom out, or on the green arrows for adjacent maps.


METAR-TAF: